sensor_id;sensor_type;location;lat;lon;timestamp;P1;durP1;ratioP1;P2;durP2;ratioP2
4106;SDS011;21906;50.812;7.132;2022-12-18T00:01:48;23.77;;;12.83;;
4106;SDS011;21906;50.812;7.132;2022-12-18T00:04:21;23.30;;;12.53;;
4106;SDS011;21906;50.812;7.132;2022-12-18T00:06:48;22.33;;;12.43;;
4106;SDS011;21906;50.812;7.132;2022-12-18T00:09:14;21.27;;;13.00;;
4106;SDS011;21906;50.812;7.132;2022-12-18T00:11:40;22.63;;;12.47;;
4106;SDS011;21906;50.812;7.132;2022-12-18T00:14:06;21.13;;;12.23;;
4106;SDS011;21906;50.812;7.132;2022-12-18T00:16:31;29.90;;;12.10;;
4106;SDS011;21906;50.812;7.132;2022-12-18T00:19:00;23.47;;;13.43;;
4106;SDS011;21906;50.812;7.132;2022-12-18T00:21:27;27.30;;;13.27;;
4106;SDS011;21906;50.812;7.132;2022-12-18T00:23:54;27.63;;;13.17;;
4106;SDS011;21906;50.812;7.132;2022-12-18T00:26:21;27.10;;;12.57;;
4106;SDS011;21906;50.812;7.132;2022-12-18T00:28:52;24.53;;;12.20;;
4106;SDS011;21906;50.812;7.132;2022-12-18T00:31:19;24.70;;;12.50;;
4106;SDS011;21906;50.812;7.132;2022-12-18T00:33:46;23.60;;;12.30;;
4106;SDS011;21906;50.812;7.132;2022-12-18T00:36:14;22.63;;;12.57;;
4106;SDS011;21906;50.812;7.132;2022-12-18T00:38:42;26.90;;;13.60;;
4106;SDS011;21906;50.812;7.132;2022-12-18T00:41:09;21.27;;;12.13;;
4106;SDS011;21906;50.812;7.132;2022-12-18T00:43:36;22.57;;;12.87;;
4106;SDS011;21906;50.812;7.132;2022-12-18T00:46:02;22.33;;;11.93;;
4106;SDS011;21906;50.812;7.132;2022-12-18T00:48:28;28.43;;;13.10;;
4106;SDS011;21906;50.812;7.132;2022-12-18T00:50:53;24.27;;;12.90;;
4106;SDS011;21906;50.812;7.132;2022-12-18T00:53:19;25.90;;;12.53;;
4106;SDS011;21906;50.812;7.132;2022-12-18T00:55:45;22.87;;;12.30;;
4106;SDS011;21906;50.812;7.132;2022-12-18T00:58:12;24.70;;;12.37;;
4106;SDS011;21906;50.812;7.132;2022-12-18T01:00:39;26.53;;;12.60;;
4106;SDS011;21906;50.812;7.132;2022-12-18T01:03:05;22.90;;;13.00;;
4106;SDS011;21906;50.812;7.132;2022-12-18T01:05:31;23.60;;;12.13;;
4106;SDS011;21906;50.812;7.132;2022-12-18T01:07:57;25.17;;;12.57;;
4106;SDS011;21906;50.812;7.132;2022-12-18T01:10:24;26.43;;;13.43;;
4106;SDS011;21906;50.812;7.132;2022-12-18T01:12:50;24.27;;;12.30;;
4106;SDS011;21906;50.812;7.132;2022-12-18T01:15:16;23.60;;;12.70;;
4106;SDS011;21906;50.812;7.132;2022-12-18T01:17:42;22.77;;;12.30;;
4106;SDS011;21906;50.812;7.132;2022-12-18T01:20:09;19.90;;;11.77;;
4106;SDS011;21906;50.812;7.132;2022-12-18T01:22:36;25.00;;;12.60;;
4106;SDS011;21906;50.812;7.132;2022-12-18T01:25:03;24.73;;;12.70;;
4106;SDS011;21906;50.812;7.132;2022-12-18T01:27:29;22.93;;;12.60;;
4106;SDS011;21906;50.812;7.132;2022-12-18T01:29:54;24.47;;;12.37;;
4106;SDS011;21906;50.812;7.132;2022-12-18T01:32:20;23.23;;;12.37;;
4106;SDS011;21906;50.812;7.132;2022-12-18T01:34:47;23.60;;;13.60;;
4106;SDS011;21906;50.812;7.132;2022-12-18T01:37:12;25.33;;;12.70;;
4106;SDS011;21906;50.812;7.132;2022-12-18T01:39:38;23.37;;;12.70;;
4106;SDS011;21906;50.812;7.132;2022-12-18T01:42:05;28.30;;;13.30;;
4106;SDS011;21906;50.812;7.132;2022-12-18T01:49:54;24.70;;;13.40;;
4106;SDS011;21906;50.812;7.132;2022-12-18T01:52:22;23.00;;;12.80;;
4106;SDS011;21906;50.812;7.132;2022-12-18T01:54:50;22.60;;;12.00;;
4106;SDS011;21906;50.812;7.132;2022-12-18T01:57:17;23.07;;;12.53;;
4106;SDS011;21906;50.812;7.132;2022-12-18T01:59:44;23.97;;;12.60;;
4106;SDS011;21906;50.812;7.132;2022-12-18T02:02:12;26.40;;;13.03;;
4106;SDS011;21906;50.812;7.132;2022-12-18T02:04:42;21.40;;;12.77;;
4106;SDS011;21906;50.812;7.132;2022-12-18T02:09:54;23.57;;;13.00;;
4106;SDS011;21906;50.812;7.132;2022-12-18T02:12:35;23.80;;;11.60;;
4106;SDS011;21906;50.812;7.132;2022-12-18T02:18:01;28.67;;;13.43;;
4106;SDS011;21906;50.812;7.132;2022-12-18T02:20:58;25.03;;;11.77;;
4106;SDS011;21906;50.812;7.132;2022-12-18T02:26:26;18.80;;;11.43;;
4106;SDS011;21906;50.812;7.132;2022-12-18T02:29:08;22.30;;;12.97;;
4106;SDS011;21906;50.812;7.132;2022-12-18T02:31:45;24.57;;;12.40;;
4106;SDS011;21906;50.812;7.132;2022-12-18T02:34:17;23.63;;;12.70;;
4106;SDS011;21906;50.812;7.132;2022-12-18T02:36:45;22.90;;;11.10;;
4106;SDS011;21906;50.812;7.132;2022-12-18T02:42:36;20.77;;;11.17;;
4106;SDS011;21906;50.812;7.132;2022-12-18T02:45:01;24.20;;;12.10;;
4106;SDS011;21906;50.812;7.132;2022-12-18T02:47:28;23.30;;;11.47;;
4106;SDS011;21906;50.812;7.132;2022-12-18T03:00:57;30.13;;;12.93;;
4106;SDS011;21906;50.812;7.132;2022-12-18T03:03:35;17.33;;;10.60;;
4106;SDS011;21906;50.812;7.132;2022-12-18T03:06:08;22.67;;;12.00;;
4106;SDS011;21906;50.812;7.132;2022-12-18T03:08:41;20.40;;;11.83;;
4106;SDS011;21906;50.812;7.132;2022-12-18T03:11:10;19.90;;;11.57;;
4106;SDS011;21906;50.812;7.132;2022-12-18T03:13:44;21.93;;;12.00;;
4106;SDS011;21906;50.812;7.132;2022-12-18T03:16:15;20.93;;;11.63;;
4106;SDS011;21906;50.812;7.132;2022-12-18T03:19:03;27.73;;;12.00;;
4106;SDS011;21906;50.812;7.132;2022-12-18T03:21:36;23.37;;;12.03;;
4106;SDS011;21906;50.812;7.132;2022-12-18T03:24:07;21.10;;;12.10;;
4106;SDS011;21906;50.812;7.132;2022-12-18T03:26:35;18.07;;;10.63;;
4106;SDS011;21906;50.812;7.132;2022-12-18T03:29:09;21.63;;;11.70;;
4106;SDS011;21906;50.812;7.132;2022-12-18T03:31:51;20.57;;;12.03;;
4106;SDS011;21906;50.812;7.132;2022-12-18T03:34:26;28.93;;;12.70;;
4106;SDS011;21906;50.812;7.132;2022-12-18T03:36:55;23.63;;;11.90;;
4106;SDS011;21906;50.812;7.132;2022-12-18T03:39:21;24.83;;;11.20;;
4106;SDS011;21906;50.812;7.132;2022-12-18T03:41:50;23.90;;;12.37;;
4106;SDS011;21906;50.812;7.132;2022-12-18T03:44:35;21.73;;;11.33;;
4106;SDS011;21906;50.812;7.132;2022-12-18T03:49:58;23.20;;;11.57;;
4106;SDS011;21906;50.812;7.132;2022-12-18T03:52:31;18.47;;;11.60;;
4106;SDS011;21906;50.812;7.132;2022-12-18T03:55:07;24.00;;;12.50;;
4106;SDS011;21906;50.812;7.132;2022-12-18T03:57:34;23.53;;;11.83;;
4106;SDS011;21906;50.812;7.132;2022-12-18T04:00:04;20.20;;;11.97;;
4106;SDS011;21906;50.812;7.132;2022-12-18T04:02:38;23.63;;;11.57;;
4106;SDS011;21906;50.812;7.132;2022-12-18T04:05:08;23.07;;;11.73;;
4106;SDS011;21906;50.812;7.132;2022-12-18T04:07:36;19.60;;;11.50;;
4106;SDS011;21906;50.812;7.132;2022-12-18T04:10:03;25.03;;;12.80;;
4106;SDS011;21906;50.812;7.132;2022-12-18T04:12:32;19.57;;;11.97;;
4106;SDS011;21906;50.812;7.132;2022-12-18T04:14:57;22.70;;;12.53;;
4106;SDS011;21906;50.812;7.132;2022-12-18T04:17:23;22.07;;;11.40;;
4106;SDS011;21906;50.812;7.132;2022-12-18T04:19:50;21.03;;;11.93;;
4106;SDS011;21906;50.812;7.132;2022-12-18T04:22:15;24.03;;;11.73;;
4106;SDS011;21906;50.812;7.132;2022-12-18T04:24:41;23.47;;;11.87;;
4106;SDS011;21906;50.812;7.132;2022-12-18T04:27:07;24.73;;;12.67;;
4106;SDS011;21906;50.812;7.132;2022-12-18T04:29:32;22.80;;;11.57;;
4106;SDS011;21906;50.812;7.132;2022-12-18T04:31:58;22.80;;;11.80;;
4106;SDS011;21906;50.812;7.132;2022-12-18T04:34:24;25.07;;;12.73;;
4106;SDS011;21906;50.812;7.132;2022-12-18T04:36:49;21.47;;;11.80;;
4106;SDS011;21906;50.812;7.132;2022-12-18T04:39:18;27.30;;;12.60;;
4106;SDS011;21906;50.812;7.132;2022-12-18T04:41:43;23.70;;;11.60;;
4106;SDS011;21906;50.812;7.132;2022-12-18T04:44:09;23.07;;;11.70;;
4106;SDS011;21906;50.812;7.132;2022-12-18T04:46:35;22.97;;;12.90;;
4106;SDS011;21906;50.812;7.132;2022-12-18T04:49:00;29.20;;;12.80;;
4106;SDS011;21906;50.812;7.132;2022-12-18T04:51:26;21.73;;;11.80;;
4106;SDS011;21906;50.812;7.132;2022-12-18T04:53:52;24.07;;;12.57;;
4106;SDS011;21906;50.812;7.132;2022-12-18T04:56:18;26.27;;;12.90;;
4106;SDS011;21906;50.812;7.132;2022-12-18T04:58:44;25.87;;;13.03;;
4106;SDS011;21906;50.812;7.132;2022-12-18T05:01:10;23.77;;;12.70;;
4106;SDS011;21906;50.812;7.132;2022-12-18T05:03:37;28.60;;;13.40;;
4106;SDS011;21906;50.812;7.132;2022-12-18T05:06:04;26.53;;;11.90;;
4106;SDS011;21906;50.812;7.132;2022-12-18T05:08:30;23.23;;;12.30;;
4106;SDS011;21906;50.812;7.132;2022-12-18T05:13:31;21.53;;;11.23;;
4106;SDS011;21906;50.812;7.132;2022-12-18T05:15:57;23.70;;;12.10;;
4106;SDS011;21906;50.812;7.132;2022-12-18T05:18:23;23.40;;;12.67;;
4106;SDS011;21906;50.812;7.132;2022-12-18T05:20:53;23.10;;;12.27;;
4106;SDS011;21906;50.812;7.132;2022-12-18T05:23:19;23.83;;;12.53;;
4106;SDS011;21906;50.812;7.132;2022-12-18T05:28:19;25.30;;;12.43;;
4106;SDS011;21906;50.812;7.132;2022-12-18T05:30:49;22.40;;;12.60;;
4106;SDS011;21906;50.812;7.132;2022-12-18T05:33:19;25.00;;;13.30;;
4106;SDS011;21906;50.812;7.132;2022-12-18T05:35:50;22.67;;;12.93;;
4106;SDS011;21906;50.812;7.132;2022-12-18T05:38:17;18.87;;;11.70;;
4106;SDS011;21906;50.812;7.132;2022-12-18T05:40:43;25.30;;;12.47;;
4106;SDS011;21906;50.812;7.132;2022-12-18T05:43:09;21.63;;;12.00;;
4106;SDS011;21906;50.812;7.132;2022-12-18T05:45:38;21.00;;;11.67;;
4106;SDS011;21906;50.812;7.132;2022-12-18T05:48:05;23.30;;;12.67;;
4106;SDS011;21906;50.812;7.132;2022-12-18T05:50:33;21.87;;;12.50;;
4106;SDS011;21906;50.812;7.132;2022-12-18T05:53:02;28.90;;;12.80;;
4106;SDS011;21906;50.812;7.132;2022-12-18T05:55:29;25.57;;;13.43;;
4106;SDS011;21906;50.812;7.132;2022-12-18T05:57:57;24.60;;;12.57;;
4106;SDS011;21906;50.812;7.132;2022-12-18T06:00:24;19.80;;;12.07;;
4106;SDS011;21906;50.812;7.132;2022-12-18T06:02:49;25.83;;;13.60;;
4106;SDS011;21906;50.812;7.132;2022-12-18T06:05:15;24.67;;;12.37;;
4106;SDS011;21906;50.812;7.132;2022-12-18T06:07:40;25.00;;;12.63;;
4106;SDS011;21906;50.812;7.132;2022-12-18T06:10:06;21.97;;;12.03;;
4106;SDS011;21906;50.812;7.132;2022-12-18T06:12:32;27.07;;;13.00;;
4106;SDS011;21906;50.812;7.132;2022-12-18T06:15:01;26.20;;;13.07;;
4106;SDS011;21906;50.812;7.132;2022-12-18T06:17:27;23.40;;;12.70;;
4106;SDS011;21906;50.812;7.132;2022-12-18T06:19:56;24.70;;;13.30;;
4106;SDS011;21906;50.812;7.132;2022-12-18T06:22:22;28.93;;;13.77;;
4106;SDS011;21906;50.812;7.132;2022-12-18T06:24:48;25.60;;;13.67;;
4106;SDS011;21906;50.812;7.132;2022-12-18T06:27:14;29.10;;;13.20;;
4106;SDS011;21906;50.812;7.132;2022-12-18T06:29:39;23.37;;;12.37;;
4106;SDS011;21906;50.812;7.132;2022-12-18T06:32:05;23.73;;;12.20;;
4106;SDS011;21906;50.812;7.132;2022-12-18T06:34:31;27.93;;;13.20;;
4106;SDS011;21906;50.812;7.132;2022-12-18T06:36:57;24.70;;;13.37;;
4106;SDS011;21906;50.812;7.132;2022-12-18T06:39:23;25.93;;;13.17;;
4106;SDS011;21906;50.812;7.132;2022-12-18T06:41:49;24.17;;;12.63;;
4106;SDS011;21906;50.812;7.132;2022-12-18T06:44:15;28.60;;;12.80;;
4106;SDS011;21906;50.812;7.132;2022-12-18T06:46:40;23.90;;;12.33;;
4106;SDS011;21906;50.812;7.132;2022-12-18T06:49:06;29.93;;;14.20;;
4106;SDS011;21906;50.812;7.132;2022-12-18T06:51:34;25.93;;;13.20;;
4106;SDS011;21906;50.812;7.132;2022-12-18T06:54:00;26.23;;;13.40;;
4106;SDS011;21906;50.812;7.132;2022-12-18T06:56:26;23.20;;;13.33;;
4106;SDS011;21906;50.812;7.132;2022-12-18T06:58:55;25.30;;;12.80;;
4106;SDS011;21906;50.812;7.132;2022-12-18T07:01:20;26.53;;;13.13;;
4106;SDS011;21906;50.812;7.132;2022-12-18T07:03:56;25.90;;;13.33;;
4106;SDS011;21906;50.812;7.132;2022-12-18T07:06:23;28.47;;;13.10;;
4106;SDS011;21906;50.812;7.132;2022-12-18T07:08:51;25.73;;;13.20;;
4106;SDS011;21906;50.812;7.132;2022-12-18T07:11:18;27.20;;;13.00;;
4106;SDS011;21906;50.812;7.132;2022-12-18T07:13:44;28.40;;;14.80;;
4106;SDS011;21906;50.812;7.132;2022-12-18T07:16:12;27.50;;;13.40;;
4106;SDS011;21906;50.812;7.132;2022-12-18T07:18:39;28.57;;;13.67;;
4106;SDS011;21906;50.812;7.132;2022-12-18T07:21:06;23.00;;;12.80;;
4106;SDS011;21906;50.812;7.132;2022-12-18T07:23:36;27.57;;;13.40;;
4106;SDS011;21906;50.812;7.132;2022-12-18T07:26:03;25.17;;;13.43;;
4106;SDS011;21906;50.812;7.132;2022-12-18T07:28:37;25.70;;;13.30;;
4106;SDS011;21906;50.812;7.132;2022-12-18T07:31:05;26.07;;;13.83;;
4106;SDS011;21906;50.812;7.132;2022-12-18T07:33:32;26.63;;;13.80;;
4106;SDS011;21906;50.812;7.132;2022-12-18T07:35:59;23.80;;;12.67;;
4106;SDS011;21906;50.812;7.132;2022-12-18T07:38:29;22.87;;;13.00;;
4106;SDS011;21906;50.812;7.132;2022-12-18T07:41:00;26.20;;;13.60;;
4106;SDS011;21906;50.812;7.132;2022-12-18T07:43:26;24.13;;;12.70;;
4106;SDS011;21906;50.812;7.132;2022-12-18T07:45:52;26.47;;;13.60;;
4106;SDS011;21906;50.812;7.132;2022-12-18T07:48:18;24.03;;;13.40;;
4106;SDS011;21906;50.812;7.132;2022-12-18T07:50:43;23.00;;;13.13;;
4106;SDS011;21906;50.812;7.132;2022-12-18T07:53:09;25.07;;;12.93;;
4106;SDS011;21906;50.812;7.132;2022-12-18T07:55:34;32.20;;;13.80;;
4106;SDS011;21906;50.812;7.132;2022-12-18T07:58:01;23.87;;;12.67;;
4106;SDS011;21906;50.812;7.132;2022-12-18T08:00:30;23.00;;;12.30;;
4106;SDS011;21906;50.812;7.132;2022-12-18T08:02:56;24.47;;;13.30;;
4106;SDS011;21906;50.812;7.132;2022-12-18T08:05:22;26.50;;;13.07;;
4106;SDS011;21906;50.812;7.132;2022-12-18T08:07:48;24.07;;;13.03;;
4106;SDS011;21906;50.812;7.132;2022-12-18T08:10:14;22.63;;;12.80;;
4106;SDS011;21906;50.812;7.132;2022-12-18T08:12:40;24.47;;;12.00;;
4106;SDS011;21906;50.812;7.132;2022-12-18T08:15:06;21.57;;;12.30;;
4106;SDS011;21906;50.812;7.132;2022-12-18T08:17:32;26.23;;;12.23;;
4106;SDS011;21906;50.812;7.132;2022-12-18T08:19:58;26.90;;;13.23;;
4106;SDS011;21906;50.812;7.132;2022-12-18T08:22:24;22.33;;;12.43;;
4106;SDS011;21906;50.812;7.132;2022-12-18T08:24:49;25.63;;;12.77;;
4106;SDS011;21906;50.812;7.132;2022-12-18T08:27:15;28.30;;;12.93;;
4106;SDS011;21906;50.812;7.132;2022-12-18T08:29:41;25.73;;;13.20;;
4106;SDS011;21906;50.812;7.132;2022-12-18T08:32:06;24.17;;;13.30;;
4106;SDS011;21906;50.812;7.132;2022-12-18T08:34:32;28.63;;;13.60;;
4106;SDS011;21906;50.812;7.132;2022-12-18T08:36:58;24.20;;;12.90;;
4106;SDS011;21906;50.812;7.132;2022-12-18T08:39:24;29.00;;;13.70;;
4106;SDS011;21906;50.812;7.132;2022-12-18T08:41:49;24.20;;;13.70;;
4106;SDS011;21906;50.812;7.132;2022-12-18T08:44:33;22.73;;;13.67;;
4106;SDS011;21906;50.812;7.132;2022-12-18T08:47:02;24.00;;;13.63;;
4106;SDS011;21906;50.812;7.132;2022-12-18T08:49:28;26.50;;;13.37;;
4106;SDS011;21906;50.812;7.132;2022-12-18T08:51:54;25.43;;;14.60;;
4106;SDS011;21906;50.812;7.132;2022-12-18T08:54:22;23.60;;;14.30;;
4106;SDS011;21906;50.812;7.132;2022-12-18T08:56:48;25.10;;;13.80;;
4106;SDS011;21906;50.812;7.132;2022-12-18T08:59:15;24.93;;;13.27;;
4106;SDS011;21906;50.812;7.132;2022-12-18T09:01:41;24.17;;;14.53;;
4106;SDS011;21906;50.812;7.132;2022-12-18T09:04:07;28.37;;;13.83;;
4106;SDS011;21906;50.812;7.132;2022-12-18T09:06:34;28.80;;;13.87;;
4106;SDS011;21906;50.812;7.132;2022-12-18T09:09:00;28.20;;;13.60;;
4106;SDS011;21906;50.812;7.132;2022-12-18T09:11:28;26.67;;;14.30;;
4106;SDS011;21906;50.812;7.132;2022-12-18T09:13:54;27.63;;;14.37;;
4106;SDS011;21906;50.812;7.132;2022-12-18T09:16:20;23.83;;;14.37;;
4106;SDS011;21906;50.812;7.132;2022-12-18T09:18:47;26.70;;;13.83;;
4106;SDS011;21906;50.812;7.132;2022-12-18T09:21:14;25.63;;;14.30;;
4106;SDS011;21906;50.812;7.132;2022-12-18T09:23:41;26.20;;;14.13;;
4106;SDS011;21906;50.812;7.132;2022-12-18T09:26:07;26.80;;;15.00;;
4106;SDS011;21906;50.812;7.132;2022-12-18T09:28:33;27.00;;;14.17;;
4106;SDS011;21906;50.812;7.132;2022-12-18T09:31:03;27.17;;;14.47;;
4106;SDS011;21906;50.812;7.132;2022-12-18T09:33:30;26.93;;;13.53;;
4106;SDS011;21906;50.812;7.132;2022-12-18T09:35:56;23.70;;;13.47;;
4106;SDS011;21906;50.812;7.132;2022-12-18T09:38:21;23.33;;;12.40;;
4106;SDS011;21906;50.812;7.132;2022-12-18T09:40:49;23.77;;;13.60;;
4106;SDS011;21906;50.812;7.132;2022-12-18T09:43:18;25.63;;;14.37;;
4106;SDS011;21906;50.812;7.132;2022-12-18T09:45:52;24.23;;;14.10;;
4106;SDS011;21906;50.812;7.132;2022-12-18T09:48:28;26.40;;;14.87;;
4106;SDS011;21906;50.812;7.132;2022-12-18T09:51:12;25.93;;;14.00;;
4106;SDS011;21906;50.812;7.132;2022-12-18T09:53:50;30.13;;;13.33;;
4106;SDS011;21906;50.812;7.132;2022-12-18T09:56:21;25.13;;;12.67;;
4106;SDS011;21906;50.812;7.132;2022-12-18T10:01:24;26.07;;;13.57;;
4106;SDS011;21906;50.812;7.132;2022-12-18T10:03:52;21.80;;;12.40;;
4106;SDS011;21906;50.812;7.132;2022-12-18T10:16:48;30.93;;;13.40;;
4106;SDS011;21906;50.812;7.132;2022-12-18T10:22:28;23.10;;;13.13;;
4106;SDS011;21906;50.812;7.132;2022-12-18T10:25:20;20.10;;;11.67;;
4106;SDS011;21906;50.812;7.132;2022-12-18T10:27:56;24.87;;;13.37;;
4106;SDS011;21906;50.812;7.132;2022-12-18T10:30:25;21.80;;;13.17;;
4106;SDS011;21906;50.812;7.132;2022-12-18T10:32:51;22.17;;;12.70;;
4106;SDS011;21906;50.812;7.132;2022-12-18T10:35:25;20.80;;;12.07;;
4106;SDS011;21906;50.812;7.132;2022-12-18T10:48:36;23.73;;;12.83;;
4106;SDS011;21906;50.812;7.132;2022-12-18T10:54:04;24.30;;;12.87;;
4106;SDS011;21906;50.812;7.132;2022-12-18T10:56:41;24.03;;;13.30;;
4106;SDS011;21906;50.812;7.132;2022-12-18T10:59:10;22.00;;;12.43;;
4106;SDS011;21906;50.812;7.132;2022-12-18T11:04:21;22.50;;;12.70;;
4106;SDS011;21906;50.812;7.132;2022-12-18T11:06:55;21.47;;;12.50;;
4106;SDS011;21906;50.812;7.132;2022-12-18T11:09:24;22.83;;;12.23;;
4106;SDS011;21906;50.812;7.132;2022-12-18T11:11:55;22.30;;;12.30;;
4106;SDS011;21906;50.812;7.132;2022-12-18T11:14:28;21.43;;;12.50;;
4106;SDS011;21906;50.812;7.132;2022-12-18T11:16:56;23.17;;;13.80;;
4106;SDS011;21906;50.812;7.132;2022-12-18T11:22:19;21.17;;;12.27;;
4106;SDS011;21906;50.812;7.132;2022-12-18T11:24:56;25.90;;;13.77;;
4106;SDS011;21906;50.812;7.132;2022-12-18T11:27:30;24.87;;;12.97;;
4106;SDS011;21906;50.812;7.132;2022-12-18T11:33:35;22.53;;;13.60;;
4106;SDS011;21906;50.812;7.132;2022-12-18T11:36:02;24.13;;;12.67;;
4106;SDS011;21906;50.812;7.132;2022-12-18T11:38:37;25.67;;;13.47;;
4106;SDS011;21906;50.812;7.132;2022-12-18T11:44:02;24.40;;;13.77;;
4106;SDS011;21906;50.812;7.132;2022-12-18T11:46:36;22.63;;;13.97;;
4106;SDS011;21906;50.812;7.132;2022-12-18T11:49:11;27.50;;;14.03;;
4106;SDS011;21906;50.812;7.132;2022-12-18T11:52:04;26.70;;;13.60;;
4106;SDS011;21906;50.812;7.132;2022-12-18T11:54:39;22.97;;;13.40;;
4106;SDS011;21906;50.812;7.132;2022-12-18T12:18:22;26.47;;;14.93;;
4106;SDS011;21906;50.812;7.132;2022-12-18T12:23:28;24.00;;;14.17;;
4106;SDS011;21906;50.812;7.132;2022-12-18T12:26:09;29.53;;;13.93;;
4106;SDS011;21906;50.812;7.132;2022-12-18T12:34:22;27.40;;;15.23;;
4106;SDS011;21906;50.812;7.132;2022-12-18T12:39:40;27.57;;;14.60;;
4106;SDS011;21906;50.812;7.132;2022-12-18T12:42:31;26.60;;;14.43;;
4106;SDS011;21906;50.812;7.132;2022-12-18T12:45:37;28.93;;;15.13;;
4106;SDS011;21906;50.812;7.132;2022-12-18T12:50:57;30.83;;;16.33;;
4106;SDS011;21906;50.812;7.132;2022-12-18T12:53:29;27.87;;;15.00;;
4106;SDS011;21906;50.812;7.132;2022-12-18T12:56:03;34.70;;;17.00;;
4106;SDS011;21906;50.812;7.132;2022-12-18T13:01:39;28.53;;;15.30;;
4106;SDS011;21906;50.812;7.132;2022-12-18T13:06:58;31.40;;;16.17;;
4106;SDS011;21906;50.812;7.132;2022-12-18T13:10:10;30.80;;;15.20;;
4106;SDS011;21906;50.812;7.132;2022-12-18T13:12:54;29.37;;;16.10;;
4106;SDS011;21906;50.812;7.132;2022-12-18T13:18:19;33.07;;;16.73;;
4106;SDS011;21906;50.812;7.132;2022-12-18T13:25:55;29.23;;;16.03;;
4106;SDS011;21906;50.812;7.132;2022-12-18T13:28:49;27.33;;;15.40;;
4106;SDS011;21906;50.812;7.132;2022-12-18T13:32:02;29.50;;;16.00;;
4106;SDS011;21906;50.812;7.132;2022-12-18T13:34:20;31.43;;;15.90;;
4106;SDS011;21906;50.812;7.132;2022-12-18T13:37:35;27.00;;;14.87;;
4106;SDS011;21906;50.812;7.132;2022-12-18T13:39:59;28.23;;;15.30;;
4106;SDS011;21906;50.812;7.132;2022-12-18T13:48:29;32.97;;;16.20;;
4106;SDS011;21906;50.812;7.132;2022-12-18T13:51:04;29.10;;;15.70;;
4106;SDS011;21906;50.812;7.132;2022-12-18T13:53:35;34.47;;;16.10;;
4106;SDS011;21906;50.812;7.132;2022-12-18T13:56:15;30.07;;;15.83;;
4106;SDS011;21906;50.812;7.132;2022-12-18T13:59:03;30.10;;;15.90;;
4106;SDS011;21906;50.812;7.132;2022-12-18T14:09:43;30.47;;;16.00;;
4106;SDS011;21906;50.812;7.132;2022-12-18T14:12:16;31.83;;;16.37;;
4106;SDS011;21906;50.812;7.132;2022-12-18T14:15:03;34.40;;;17.20;;
4106;SDS011;21906;50.812;7.132;2022-12-18T14:17:36;34.00;;;16.87;;
4106;SDS011;21906;50.812;7.132;2022-12-18T14:20:02;30.77;;;16.60;;
4106;SDS011;21906;50.812;7.132;2022-12-18T14:22:28;29.47;;;17.17;;
4106;SDS011;21906;50.812;7.132;2022-12-18T14:30:39;27.80;;;16.13;;
4106;SDS011;21906;50.812;7.132;2022-12-18T14:33:10;31.60;;;17.03;;
4106;SDS011;21906;50.812;7.132;2022-12-18T14:35:37;33.67;;;17.67;;
4106;SDS011;21906;50.812;7.132;2022-12-18T14:38:17;33.80;;;17.47;;
4106;SDS011;21906;50.812;7.132;2022-12-18T14:41:05;34.37;;;18.30;;
4106;SDS011;21906;50.812;7.132;2022-12-18T14:43:36;32.07;;;17.60;;
4106;SDS011;21906;50.812;7.132;2022-12-18T14:46:03;32.40;;;17.40;;
4106;SDS011;21906;50.812;7.132;2022-12-18T14:53:45;33.30;;;18.00;;
4106;SDS011;21906;50.812;7.132;2022-12-18T14:56:14;31.87;;;17.53;;
4106;SDS011;21906;50.812;7.132;2022-12-18T14:58:46;35.60;;;17.90;;
4106;SDS011;21906;50.812;7.132;2022-12-18T15:01:28;32.73;;;18.20;;
4106;SDS011;21906;50.812;7.132;2022-12-18T15:03:55;37.07;;;17.53;;
4106;SDS011;21906;50.812;7.132;2022-12-18T15:06:29;33.03;;;17.20;;
4106;SDS011;21906;50.812;7.132;2022-12-18T15:08:57;36.00;;;18.13;;
4106;SDS011;21906;50.812;7.132;2022-12-18T15:11:30;32.43;;;17.30;;
4106;SDS011;21906;50.812;7.132;2022-12-18T15:14:20;37.23;;;17.87;;
4106;SDS011;21906;50.812;7.132;2022-12-18T15:16:56;32.93;;;17.40;;
4106;SDS011;21906;50.812;7.132;2022-12-18T15:19:28;33.40;;;17.30;;
4106;SDS011;21906;50.812;7.132;2022-12-18T15:22:00;33.50;;;17.53;;
4106;SDS011;21906;50.812;7.132;2022-12-18T15:24:32;36.27;;;18.80;;
4106;SDS011;21906;50.812;7.132;2022-12-18T15:26:59;35.53;;;18.97;;
4106;SDS011;21906;50.812;7.132;2022-12-18T15:29:28;36.37;;;17.03;;
4106;SDS011;21906;50.812;7.132;2022-12-18T15:32:03;35.67;;;18.20;;
4106;SDS011;21906;50.812;7.132;2022-12-18T15:34:30;33.57;;;18.17;;
4106;SDS011;21906;50.812;7.132;2022-12-18T15:36:58;37.07;;;19.20;;
4106;SDS011;21906;50.812;7.132;2022-12-18T15:39:25;38.50;;;18.63;;
4106;SDS011;21906;50.812;7.132;2022-12-18T15:41:54;39.27;;;18.90;;
4106;SDS011;21906;50.812;7.132;2022-12-18T15:44:38;37.87;;;18.00;;
4106;SDS011;21906;50.812;7.132;2022-12-18T15:47:07;36.03;;;18.93;;
4106;SDS011;21906;50.812;7.132;2022-12-18T15:49:37;36.73;;;18.43;;
4106;SDS011;21906;50.812;7.132;2022-12-18T15:52:03;43.20;;;18.80;;
4106;SDS011;21906;50.812;7.132;2022-12-18T15:54:29;39.87;;;19.50;;
4106;SDS011;21906;50.812;7.132;2022-12-18T15:57:13;37.23;;;18.70;;
4106;SDS011;21906;50.812;7.132;2022-12-18T15:59:48;37.10;;;18.80;;
4106;SDS011;21906;50.812;7.132;2022-12-18T16:02:19;33.77;;;17.97;;
4106;SDS011;21906;50.812;7.132;2022-12-18T16:04:47;37.13;;;18.27;;
4106;SDS011;21906;50.812;7.132;2022-12-18T16:07:13;35.00;;;19.23;;
4106;SDS011;21906;50.812;7.132;2022-12-18T16:09:42;35.90;;;18.00;;
4106;SDS011;21906;50.812;7.132;2022-12-18T16:12:19;34.63;;;19.10;;
4106;SDS011;21906;50.812;7.132;2022-12-18T16:14:48;38.90;;;18.47;;
4106;SDS011;21906;50.812;7.132;2022-12-18T16:17:14;35.83;;;18.60;;
4106;SDS011;21906;50.812;7.132;2022-12-18T16:19:43;38.67;;;19.67;;
4106;SDS011;21906;50.812;7.132;2022-12-18T16:22:20;37.10;;;19.33;;
4106;SDS011;21906;50.812;7.132;2022-12-18T16:24:47;35.23;;;18.37;;
4106;SDS011;21906;50.812;7.132;2022-12-18T16:27:13;37.60;;;18.50;;
4106;SDS011;21906;50.812;7.132;2022-12-18T16:29:39;34.70;;;18.00;;
4106;SDS011;21906;50.812;7.132;2022-12-18T16:32:04;37.60;;;18.47;;
4106;SDS011;21906;50.812;7.132;2022-12-18T16:34:31;35.73;;;19.03;;
4106;SDS011;21906;50.812;7.132;2022-12-18T16:36:59;39.00;;;20.30;;
4106;SDS011;21906;50.812;7.132;2022-12-18T16:39:29;36.87;;;19.20;;
4106;SDS011;21906;50.812;7.132;2022-12-18T16:41:55;38.00;;;18.03;;
4106;SDS011;21906;50.812;7.132;2022-12-18T16:44:21;39.33;;;20.77;;
4106;SDS011;21906;50.812;7.132;2022-12-18T16:46:47;37.93;;;19.37;;
4106;SDS011;21906;50.812;7.132;2022-12-18T16:49:14;42.23;;;21.27;;
4106;SDS011;21906;50.812;7.132;2022-12-18T16:51:42;43.80;;;19.77;;
4106;SDS011;21906;50.812;7.132;2022-12-18T16:54:08;41.40;;;20.90;;
4106;SDS011;21906;50.812;7.132;2022-12-18T16:56:33;38.23;;;19.70;;
4106;SDS011;21906;50.812;7.132;2022-12-18T16:59:00;39.50;;;19.97;;
4106;SDS011;21906;50.812;7.132;2022-12-18T17:01:27;39.60;;;19.53;;
4106;SDS011;21906;50.812;7.132;2022-12-18T17:03:58;41.90;;;21.03;;
4106;SDS011;21906;50.812;7.132;2022-12-18T17:06:25;38.97;;;19.77;;
4106;SDS011;21906;50.812;7.132;2022-12-18T17:08:56;42.97;;;20.50;;
4106;SDS011;21906;50.812;7.132;2022-12-18T17:11:30;42.37;;;21.03;;
4106;SDS011;21906;50.812;7.132;2022-12-18T17:13:57;42.13;;;21.27;;
4106;SDS011;21906;50.812;7.132;2022-12-18T17:16:23;41.17;;;21.27;;
4106;SDS011;21906;50.812;7.132;2022-12-18T17:18:51;43.10;;;20.57;;
4106;SDS011;21906;50.812;7.132;2022-12-18T17:21:17;36.37;;;18.30;;